sensor_id;sensor_type;location;lat;lon;timestamp;P1;durP1;ratioP1;P2;durP2;ratioP2
10191;SDS011;17580;50.850;4.504;2024-02-28T00:20:48;9.43;;;8.37;;
10191;SDS011;17580;50.850;4.504;2024-02-28T00:23:15;8.37;;;7.57;;
10191;SDS011;17580;50.850;4.504;2024-02-28T00:25:42;8.23;;;7.33;;
10191;SDS011;17580;50.850;4.504;2024-02-28T00:28:09;7.90;;;7.10;;
10191;SDS011;17580;50.850;4.504;2024-02-28T00:30:37;10.20;;;7.83;;
10191;SDS011;17580;50.850;4.504;2024-02-28T00:33:04;7.97;;;7.17;;
10191;SDS011;17580;50.850;4.504;2024-02-28T00:35:31;10.20;;;7.60;;
10191;SDS011;17580;50.850;4.504;2024-02-28T00:38:00;9.40;;;7.50;;
10191;SDS011;17580;50.850;4.504;2024-02-28T00:40:28;10.17;;;8.53;;
10191;SDS011;17580;50.850;4.504;2024-02-28T00:42:56;9.07;;;8.17;;
10191;SDS011;17580;50.850;4.504;2024-02-28T00:45:24;8.53;;;7.63;;
10191;SDS011;17580;50.850;4.504;2024-02-28T00:47:51;9.20;;;8.20;;
10191;SDS011;17580;50.850;4.504;2024-02-28T00:50:19;9.33;;;7.23;;
10191;SDS011;17580;50.850;4.504;2024-02-28T00:52:47;8.33;;;7.20;;
10191;SDS011;17580;50.850;4.504;2024-02-28T00:55:15;10.93;;;7.67;;
10191;SDS011;17580;50.850;4.504;2024-02-28T00:57:43;10.53;;;8.33;;
10191;SDS011;17580;50.850;4.504;2024-02-28T01:00:11;9.23;;;7.93;;
10191;SDS011;17580;50.850;4.504;2024-02-28T01:02:39;9.00;;;7.97;;
10191;SDS011;17580;50.850;4.504;2024-02-28T01:05:07;13.60;;;8.13;;
10191;SDS011;17580;50.850;4.504;2024-02-28T01:07:34;8.50;;;7.57;;
10191;SDS011;17580;50.850;4.504;2024-02-28T01:10:01;8.77;;;7.83;;
10191;SDS011;17580;50.850;4.504;2024-02-28T01:12:30;8.20;;;7.27;;
10191;SDS011;17580;50.850;4.504;2024-02-28T01:14:57;8.10;;;7.30;;
10191;SDS011;17580;50.850;4.504;2024-02-28T01:17:25;14.50;;;7.60;;
10191;SDS011;17580;50.850;4.504;2024-02-28T01:19:52;8.00;;;6.97;;
10191;SDS011;17580;50.850;4.504;2024-02-28T01:22:19;7.50;;;6.70;;
10191;SDS011;17580;50.850;4.504;2024-02-28T01:24:46;8.43;;;7.57;;
10191;SDS011;17580;50.850;4.504;2024-02-28T01:27:13;7.77;;;6.87;;
10191;SDS011;17580;50.850;4.504;2024-02-28T01:29:42;11.53;;;7.07;;
10191;SDS011;17580;50.850;4.504;2024-02-28T01:32:09;8.77;;;6.90;;
10191;SDS011;17580;50.850;4.504;2024-02-28T01:34:36;9.13;;;7.07;;
10191;SDS011;17580;50.850;4.504;2024-02-28T01:37:04;8.03;;;7.23;;
10191;SDS011;17580;50.850;4.504;2024-02-28T01:39:31;7.13;;;6.47;;
10191;SDS011;17580;50.850;4.504;2024-02-28T01:41:58;8.20;;;7.40;;
10191;SDS011;17580;50.850;4.504;2024-02-28T01:44:25;8.73;;;6.60;;
10191;SDS011;17580;50.850;4.504;2024-02-28T01:46:54;9.60;;;7.53;;
10191;SDS011;17580;50.850;4.504;2024-02-28T01:49:23;8.03;;;6.90;;
10191;SDS011;17580;50.850;4.504;2024-02-28T01:51:50;7.60;;;6.60;;
10191;SDS011;17580;50.850;4.504;2024-02-28T01:54:18;8.40;;;6.67;;
10191;SDS011;17580;50.850;4.504;2024-02-28T01:56:47;7.90;;;7.10;;
10191;SDS011;17580;50.850;4.504;2024-02-28T01:59:14;7.40;;;6.60;;
10191;SDS011;17580;50.850;4.504;2024-02-28T02:01:41;8.13;;;7.33;;
10191;SDS011;17580;50.850;4.504;2024-02-28T02:04:10;7.87;;;7.10;;
10191;SDS011;17580;50.850;4.504;2024-02-28T02:06:38;7.50;;;6.50;;
10191;SDS011;17580;50.850;4.504;2024-02-28T02:09:06;9.50;;;7.10;;
10191;SDS011;17580;50.850;4.504;2024-02-28T02:11:33;7.77;;;7.00;;
10191;SDS011;17580;50.850;4.504;2024-02-28T02:14:01;7.10;;;6.40;;
10191;SDS011;17580;50.850;4.504;2024-02-28T02:16:28;7.47;;;6.57;;
10191;SDS011;17580;50.850;4.504;2024-02-28T02:18:55;7.57;;;6.80;;
10191;SDS011;17580;50.850;4.504;2024-02-28T02:21:25;6.83;;;5.97;;
10191;SDS011;17580;50.850;4.504;2024-02-28T02:23:54;11.00;;;7.00;;
10191;SDS011;17580;50.850;4.504;2024-02-28T02:26:22;7.17;;;6.33;;
10191;SDS011;17580;50.850;4.504;2024-02-28T02:28:49;8.07;;;6.53;;
10191;SDS011;17580;50.850;4.504;2024-02-28T02:31:16;9.03;;;6.77;;
10191;SDS011;17580;50.850;4.504;2024-02-28T02:33:43;7.97;;;5.83;;
10191;SDS011;17580;50.850;4.504;2024-02-28T02:36:11;8.90;;;6.77;;
10191;SDS011;17580;50.850;4.504;2024-02-28T02:38:38;7.93;;;6.43;;
10191;SDS011;17580;50.850;4.504;2024-02-28T02:41:07;7.30;;;6.47;;
10191;SDS011;17580;50.850;4.504;2024-02-28T02:43:34;7.50;;;6.80;;
10191;SDS011;17580;50.850;4.504;2024-02-28T02:46:01;6.53;;;5.93;;
10191;SDS011;17580;50.850;4.504;2024-02-28T02:48:28;10.23;;;6.43;;
10191;SDS011;17580;50.850;4.504;2024-02-28T02:50:56;8.27;;;7.07;;
10191;SDS011;17580;50.850;4.504;2024-02-28T02:53:23;8.17;;;6.87;;
10191;SDS011;17580;50.850;4.504;2024-02-28T02:55:50;6.87;;;6.27;;
10191;SDS011;17580;50.850;4.504;2024-02-28T02:58:20;7.70;;;6.90;;
10191;SDS011;17580;50.850;4.504;2024-02-28T03:00:47;11.13;;;6.77;;
10191;SDS011;17580;50.850;4.504;2024-02-28T03:03:15;8.20;;;6.73;;
10191;SDS011;17580;50.850;4.504;2024-02-28T03:05:42;7.37;;;6.67;;
10191;SDS011;17580;50.850;4.504;2024-02-28T03:08:09;9.37;;;6.57;;
10191;SDS011;17580;50.850;4.504;2024-02-28T03:10:36;8.00;;;6.80;;
10191;SDS011;17580;50.850;4.504;2024-02-28T03:13:03;7.17;;;5.90;;
10191;SDS011;17580;50.850;4.504;2024-02-28T03:15:33;9.13;;;7.83;;
10191;SDS011;17580;50.850;4.504;2024-02-28T03:18:00;8.07;;;7.23;;
10191;SDS011;17580;50.850;4.504;2024-02-28T03:20:27;8.23;;;6.77;;
10191;SDS011;17580;50.850;4.504;2024-02-28T03:22:55;10.37;;;6.50;;
10191;SDS011;17580;50.850;4.504;2024-02-28T03:25:22;7.40;;;6.70;;
10191;SDS011;17580;50.850;4.504;2024-02-28T03:27:49;8.17;;;6.07;;
10191;SDS011;17580;50.850;4.504;2024-02-28T03:30:18;7.37;;;6.67;;
10191;SDS011;17580;50.850;4.504;2024-02-28T03:32:46;10.80;;;6.53;;
10191;SDS011;17580;50.850;4.504;2024-02-28T03:35:14;7.47;;;6.13;;
10191;SDS011;17580;50.850;4.504;2024-02-28T03:37:41;7.30;;;6.60;;
10191;SDS011;17580;50.850;4.504;2024-02-28T03:40:08;7.83;;;6.77;;
10191;SDS011;17580;50.850;4.504;2024-02-28T03:42:36;7.83;;;7.03;;
10191;SDS011;17580;50.850;4.504;2024-02-28T03:45:03;9.73;;;6.87;;
10191;SDS011;17580;50.850;4.504;2024-02-28T03:47:31;10.40;;;7.73;;
10191;SDS011;17580;50.850;4.504;2024-02-28T03:49:59;9.50;;;7.23;;
10191;SDS011;17580;50.850;4.504;2024-02-28T03:52:28;10.47;;;6.50;;
10191;SDS011;17580;50.850;4.504;2024-02-28T03:54:56;8.63;;;7.47;;
10191;SDS011;17580;50.850;4.504;2024-02-28T03:57:23;8.17;;;7.07;;
10191;SDS011;17580;50.850;4.504;2024-02-28T03:59:50;8.87;;;7.27;;
10191;SDS011;17580;50.850;4.504;2024-02-28T04:02:17;8.23;;;7.37;;
10191;SDS011;17580;50.850;4.504;2024-02-28T04:04:45;7.93;;;6.90;;
10191;SDS011;17580;50.850;4.504;2024-02-28T04:07:13;7.90;;;7.10;;
10191;SDS011;17580;50.850;4.504;2024-02-28T04:09:40;9.33;;;7.47;;
10191;SDS011;17580;50.850;4.504;2024-02-28T04:12:08;7.30;;;6.60;;
10191;SDS011;17580;50.850;4.504;2024-02-28T04:14:37;9.93;;;8.10;;
10191;SDS011;17580;50.850;4.504;2024-02-28T04:17:04;8.90;;;6.80;;
10191;SDS011;17580;50.850;4.504;2024-02-28T04:19:32;8.23;;;6.90;;
10191;SDS011;17580;50.850;4.504;2024-02-28T04:22:02;7.73;;;6.43;;
10191;SDS011;17580;50.850;4.504;2024-02-28T04:24:31;8.27;;;6.93;;
10191;SDS011;17580;50.850;4.504;2024-02-28T04:26:58;9.53;;;6.97;;
10191;SDS011;17580;50.850;4.504;2024-02-28T04:29:28;9.43;;;7.03;;
10191;SDS011;17580;50.850;4.504;2024-02-28T04:31:55;8.77;;;7.17;;
10191;SDS011;17580;50.850;4.504;2024-02-28T04:34:22;7.50;;;6.63;;
10191;SDS011;17580;50.850;4.504;2024-02-28T04:36:49;11.90;;;6.60;;
10191;SDS011;17580;50.850;4.504;2024-02-28T04:39:16;13.63;;;7.47;;
10191;SDS011;17580;50.850;4.504;2024-02-28T04:41:45;11.03;;;8.20;;
10191;SDS011;17580;50.850;4.504;2024-02-28T04:44:12;12.03;;;8.50;;
10191;SDS011;17580;50.850;4.504;2024-02-28T04:46:39;12.57;;;8.13;;
10191;SDS011;17580;50.850;4.504;2024-02-28T04:49:07;13.87;;;8.07;;
10191;SDS011;17580;50.850;4.504;2024-02-28T04:51:34;11.53;;;9.20;;
10191;SDS011;17580;50.850;4.504;2024-02-28T04:54:02;10.93;;;8.67;;
10191;SDS011;17580;50.850;4.504;2024-02-28T04:56:29;12.23;;;8.40;;
10191;SDS011;17580;50.850;4.504;2024-02-28T04:58:57;10.13;;;7.73;;
10191;SDS011;17580;50.850;4.504;2024-02-28T05:01:25;13.67;;;8.57;;
10191;SDS011;17580;50.850;4.504;2024-02-28T05:03:53;10.23;;;8.60;;
10191;SDS011;17580;50.850;4.504;2024-02-28T05:06:20;15.93;;;10.13;;
10191;SDS011;17580;50.850;4.504;2024-02-28T05:08:47;12.67;;;10.27;;
10191;SDS011;17580;50.850;4.504;2024-02-28T05:11:14;13.47;;;9.83;;
10191;SDS011;17580;50.850;4.504;2024-02-28T05:13:42;10.30;;;8.53;;
10191;SDS011;17580;50.850;4.504;2024-02-28T05:16:13;10.90;;;9.77;;
10191;SDS011;17580;50.850;4.504;2024-02-28T05:18:40;12.23;;;10.37;;
10191;SDS011;17580;50.850;4.504;2024-02-28T05:21:07;13.10;;;10.70;;
10191;SDS011;17580;50.850;4.504;2024-02-28T05:23:34;13.33;;;10.37;;
10191;SDS011;17580;50.850;4.504;2024-02-28T05:26:02;13.13;;;10.00;;
10191;SDS011;17580;50.850;4.504;2024-02-28T05:28:31;12.53;;;9.73;;
10191;SDS011;17580;50.850;4.504;2024-02-28T05:30:59;11.13;;;9.90;;
10191;SDS011;17580;50.850;4.504;2024-02-28T05:33:29;14.30;;;9.73;;
10191;SDS011;17580;50.850;4.504;2024-02-28T05:35:56;12.27;;;9.00;;
10191;SDS011;17580;50.850;4.504;2024-02-28T05:38:26;13.47;;;9.97;;
10191;SDS011;17580;50.850;4.504;2024-02-28T05:40:53;13.27;;;10.73;;
10191;SDS011;17580;50.850;4.504;2024-02-28T05:43:20;13.47;;;10.20;;
10191;SDS011;17580;50.850;4.504;2024-02-28T05:45:47;11.43;;;9.23;;
10191;SDS011;17580;50.850;4.504;2024-02-28T05:48:15;13.40;;;10.37;;
10191;SDS011;17580;50.850;4.504;2024-02-28T05:50:43;12.83;;;9.83;;
10191;SDS011;17580;50.850;4.504;2024-02-28T05:53:10;13.67;;;9.83;;
10191;SDS011;17580;50.850;4.504;2024-02-28T05:55:37;12.30;;;9.60;;
10191;SDS011;17580;50.850;4.504;2024-02-28T05:58:05;11.93;;;9.37;;
10191;SDS011;17580;50.850;4.504;2024-02-28T06:00:32;13.87;;;10.50;;
10191;SDS011;17580;50.850;4.504;2024-02-28T06:03:01;16.13;;;10.47;;
10191;SDS011;17580;50.850;4.504;2024-02-28T06:05:28;17.47;;;10.43;;
10191;SDS011;17580;50.850;4.504;2024-02-28T06:07:56;18.13;;;13.07;;
10191;SDS011;17580;50.850;4.504;2024-02-28T06:10:24;12.30;;;10.60;;
10191;SDS011;17580;50.850;4.504;2024-02-28T06:12:51;13.77;;;9.80;;
10191;SDS011;17580;50.850;4.504;2024-02-28T06:15:18;11.70;;;9.23;;
10191;SDS011;17580;50.850;4.504;2024-02-28T06:17:45;13.23;;;11.07;;
10191;SDS011;17580;50.850;4.504;2024-02-28T06:20:13;11.67;;;9.93;;
10191;SDS011;17580;50.850;4.504;2024-02-28T06:22:40;12.53;;;10.77;;
10191;SDS011;17580;50.850;4.504;2024-02-28T06:25:09;14.43;;;10.57;;
10191;SDS011;17580;50.850;4.504;2024-02-28T06:27:43;19.70;;;11.53;;
10191;SDS011;17580;50.850;4.504;2024-02-28T06:30:10;18.87;;;11.00;;
10191;SDS011;17580;50.850;4.504;2024-02-28T06:32:38;16.10;;;11.23;;
10191;SDS011;17580;50.850;4.504;2024-02-28T06:35:06;15.50;;;11.00;;
10191;SDS011;17580;50.850;4.504;2024-02-28T06:37:33;17.50;;;11.43;;
10191;SDS011;17580;50.850;4.504;2024-02-28T06:40:02;16.67;;;10.63;;
10191;SDS011;17580;50.850;4.504;2024-02-28T06:42:31;11.87;;;10.00;;
10191;SDS011;17580;50.850;4.504;2024-02-28T06:45:00;13.63;;;10.73;;
10191;SDS011;17580;50.850;4.504;2024-02-28T06:47:27;17.70;;;11.57;;
10191;SDS011;17580;50.850;4.504;2024-02-28T06:49:54;13.30;;;10.27;;
10191;SDS011;17580;50.850;4.504;2024-02-28T06:52:22;13.83;;;11.63;;
10191;SDS011;17580;50.850;4.504;2024-02-28T06:54:49;14.23;;;10.77;;
10191;SDS011;17580;50.850;4.504;2024-02-28T06:57:16;18.23;;;12.50;;
10191;SDS011;17580;50.850;4.504;2024-02-28T06:59:45;15.53;;;11.50;;
10191;SDS011;17580;50.850;4.504;2024-02-28T07:02:13;14.37;;;10.97;;
10191;SDS011;17580;50.850;4.504;2024-02-28T07:04:41;19.20;;;12.03;;
10191;SDS011;17580;50.850;4.504;2024-02-28T07:07:08;19.97;;;12.17;;
10191;SDS011;17580;50.850;4.504;2024-02-28T07:09:37;18.13;;;13.40;;
10191;SDS011;17580;50.850;4.504;2024-02-28T07:12:05;17.07;;;11.07;;
10191;SDS011;17580;50.850;4.504;2024-02-28T07:14:33;16.23;;;11.20;;
10191;SDS011;17580;50.850;4.504;2024-02-28T07:17:01;16.87;;;11.67;;
10191;SDS011;17580;50.850;4.504;2024-02-28T07:19:28;14.57;;;10.97;;
10191;SDS011;17580;50.850;4.504;2024-02-28T07:21:56;20.60;;;13.17;;
10191;SDS011;17580;50.850;4.504;2024-02-28T07:24:23;20.87;;;13.70;;
10191;SDS011;17580;50.850;4.504;2024-02-28T07:26:50;19.43;;;13.23;;
10191;SDS011;17580;50.850;4.504;2024-02-28T07:29:17;26.33;;;13.50;;
10191;SDS011;17580;50.850;4.504;2024-02-28T07:31:44;22.87;;;13.00;;
10191;SDS011;17580;50.850;4.504;2024-02-28T07:34:13;18.57;;;13.77;;
10191;SDS011;17580;50.850;4.504;2024-02-28T07:36:40;25.27;;;15.60;;
10191;SDS011;17580;50.850;4.504;2024-02-28T07:39:07;21.17;;;14.47;;
10191;SDS011;17580;50.850;4.504;2024-02-28T07:41:37;25.90;;;14.60;;
10191;SDS011;17580;50.850;4.504;2024-02-28T07:44:05;23.53;;;15.70;;
10191;SDS011;17580;50.850;4.504;2024-02-28T07:46:33;25.80;;;15.07;;
10191;SDS011;17580;50.850;4.504;2024-02-28T07:49:00;23.10;;;15.90;;
10191;SDS011;17580;50.850;4.504;2024-02-28T07:51:29;30.13;;;15.57;;
10191;SDS011;17580;50.850;4.504;2024-02-28T07:53:56;23.93;;;14.47;;
10191;SDS011;17580;50.850;4.504;2024-02-28T07:56:23;24.90;;;15.60;;
10191;SDS011;17580;50.850;4.504;2024-02-28T07:58:51;30.20;;;15.93;;
10191;SDS011;17580;50.850;4.504;2024-02-28T08:01:18;26.40;;;14.87;;
10191;SDS011;17580;50.850;4.504;2024-02-28T08:03:47;24.83;;;15.43;;
10191;SDS011;17580;50.850;4.504;2024-02-28T08:06:15;23.47;;;14.97;;
10191;SDS011;17580;50.850;4.504;2024-02-28T08:08:45;31.00;;;15.90;;
10191;SDS011;17580;50.850;4.504;2024-02-28T08:11:12;25.07;;;14.57;;
10191;SDS011;17580;50.850;4.504;2024-02-28T08:13:39;25.87;;;14.70;;
10191;SDS011;17580;50.850;4.504;2024-02-28T08:16:08;21.70;;;13.90;;
10191;SDS011;17580;50.850;4.504;2024-02-28T08:18:36;21.57;;;14.27;;
10191;SDS011;17580;50.850;4.504;2024-02-28T08:21:03;22.03;;;13.03;;
10191;SDS011;17580;50.850;4.504;2024-02-28T08:23:31;19.07;;;12.87;;
10191;SDS011;17580;50.850;4.504;2024-02-28T08:25:59;23.90;;;13.63;;
10191;SDS011;17580;50.850;4.504;2024-02-28T08:28:28;26.47;;;15.70;;
10191;SDS011;17580;50.850;4.504;2024-02-28T08:30:55;18.90;;;12.27;;
10191;SDS011;17580;50.850;4.504;2024-02-28T08:33:22;23.40;;;12.37;;
10191;SDS011;17580;50.850;4.504;2024-02-28T08:35:49;24.13;;;14.40;;
10191;SDS011;17580;50.850;4.504;2024-02-28T08:38:17;22.40;;;12.70;;
10191;SDS011;17580;50.850;4.504;2024-02-28T08:40:44;28.90;;;13.80;;
10191;SDS011;17580;50.850;4.504;2024-02-28T08:43:12;18.83;;;11.63;;
10191;SDS011;17580;50.850;4.504;2024-02-28T08:45:40;17.10;;;11.60;;
10191;SDS011;17580;50.850;4.504;2024-02-28T08:48:07;20.30;;;11.53;;
10191;SDS011;17580;50.850;4.504;2024-02-28T08:50:34;20.00;;;10.40;;
10191;SDS011;17580;50.850;4.504;2024-02-28T08:53:02;18.57;;;11.67;;
10191;SDS011;17580;50.850;4.504;2024-02-28T08:55:29;16.17;;;10.73;;
10191;SDS011;17580;50.850;4.504;2024-02-28T08:57:56;20.80;;;11.20;;
10191;SDS011;17580;50.850;4.504;2024-02-28T09:00:25;21.07;;;12.10;;
10191;SDS011;17580;50.850;4.504;2024-02-28T09:02:52;18.93;;;12.00;;
10191;SDS011;17580;50.850;4.504;2024-02-28T09:05:19;26.33;;;12.30;;
10191;SDS011;17580;50.850;4.504;2024-02-28T09:07:46;21.53;;;11.57;;
10191;SDS011;17580;50.850;4.504;2024-02-28T09:10:16;17.43;;;11.90;;
10191;SDS011;17580;50.850;4.504;2024-02-28T09:12:46;21.33;;;12.33;;
10191;SDS011;17580;50.850;4.504;2024-02-28T09:15:14;21.07;;;12.60;;
10191;SDS011;17580;50.850;4.504;2024-02-28T09:17:43;23.90;;;13.77;;
10191;SDS011;17580;50.850;4.504;2024-02-28T09:20:10;19.60;;;12.57;;
10191;SDS011;17580;50.850;4.504;2024-02-28T09:22:38;22.53;;;13.03;;
10191;SDS011;17580;50.850;4.504;2024-02-28T09:25:06;24.33;;;13.77;;
10191;SDS011;17580;50.850;4.504;2024-02-28T09:27:34;21.20;;;12.97;;
10191;SDS011;17580;50.850;4.504;2024-02-28T09:30:01;18.63;;;11.57;;
10191;SDS011;17580;50.850;4.504;2024-02-28T09:32:28;22.47;;;12.00;;
10191;SDS011;17580;50.850;4.504;2024-02-28T09:34:57;20.70;;;12.03;;
10191;SDS011;17580;50.850;4.504;2024-02-28T09:37:24;21.17;;;12.33;;
10191;SDS011;17580;50.850;4.504;2024-02-28T09:39:51;27.10;;;13.10;;
10191;SDS011;17580;50.850;4.504;2024-02-28T09:42:19;29.33;;;14.43;;
10191;SDS011;17580;50.850;4.504;2024-02-28T09:44:46;22.83;;;11.90;;
10191;SDS011;17580;50.850;4.504;2024-02-28T09:47:14;21.07;;;12.43;;
10191;SDS011;17580;50.850;4.504;2024-02-28T09:49:41;25.63;;;12.67;;
10191;SDS011;17580;50.850;4.504;2024-02-28T09:52:10;23.60;;;12.33;;
10191;SDS011;17580;50.850;4.504;2024-02-28T09:54:37;22.00;;;12.13;;
10191;SDS011;17580;50.850;4.504;2024-02-28T09:57:05;19.63;;;11.87;;
10191;SDS011;17580;50.850;4.504;2024-02-28T09:59:32;25.93;;;12.60;;
10191;SDS011;17580;50.850;4.504;2024-02-28T10:02:01;21.93;;;11.67;;
10191;SDS011;17580;50.850;4.504;2024-02-28T10:04:29;25.07;;;12.83;;
10191;SDS011;17580;50.850;4.504;2024-02-28T10:06:56;19.73;;;11.47;;
10191;SDS011;17580;50.850;4.504;2024-02-28T10:09:25;20.20;;;12.37;;
10191;SDS011;17580;50.850;4.504;2024-02-28T10:11:52;21.70;;;10.83;;
10191;SDS011;17580;50.850;4.504;2024-02-28T10:14:20;16.50;;;11.30;;
10191;SDS011;17580;50.850;4.504;2024-02-28T10:16:47;21.23;;;10.53;;
10191;SDS011;17580;50.850;4.504;2024-02-28T10:19:15;21.40;;;10.77;;
10191;SDS011;17580;50.850;4.504;2024-02-28T10:21:42;19.57;;;10.97;;
10191;SDS011;17580;50.850;4.504;2024-02-28T10:24:11;15.00;;;10.80;;
10191;SDS011;17580;50.850;4.504;2024-02-28T10:26:43;19.00;;;10.83;;
10191;SDS011;17580;50.850;4.504;2024-02-28T10:29:11;17.30;;;10.10;;
10191;SDS011;17580;50.850;4.504;2024-02-28T10:31:38;17.10;;;10.53;;
10191;SDS011;17580;50.850;4.504;2024-02-28T10:34:06;27.23;;;12.17;;
10191;SDS011;17580;50.850;4.504;2024-02-28T10:36:34;14.30;;;10.67;;
10191;SDS011;17580;50.850;4.504;2024-02-28T10:39:01;18.83;;;10.03;;
10191;SDS011;17580;50.850;4.504;2024-02-28T10:41:29;14.83;;;9.63;;
10191;SDS011;17580;50.850;4.504;2024-02-28T10:43:58;19.30;;;10.77;;
10191;SDS011;17580;50.850;4.504;2024-02-28T10:46:25;15.00;;;9.43;;
10191;SDS011;17580;50.850;4.504;2024-02-28T10:48:53;14.93;;;8.97;;
10191;SDS011;17580;50.850;4.504;2024-02-28T10:51:22;15.53;;;9.30;;
10191;SDS011;17580;50.850;4.504;2024-02-28T10:53:51;11.10;;;8.23;;
10191;SDS011;17580;50.850;4.504;2024-02-28T10:56:24;14.50;;;8.13;;
10191;SDS011;17580;50.850;4.504;2024-02-28T10:58:52;13.03;;;8.60;;
10191;SDS011;17580;50.850;4.504;2024-02-28T11:01:21;11.37;;;7.10;;
10191;SDS011;17580;50.850;4.504;2024-02-28T11:03:48;12.17;;;7.67;;
10191;SDS011;17580;50.850;4.504;2024-02-28T11:06:17;11.03;;;7.47;;
10191;SDS011;17580;50.850;4.504;2024-02-28T11:08:46;10.87;;;7.70;;
10191;SDS011;17580;50.850;4.504;2024-02-28T11:11:14;14.13;;;8.30;;
10191;SDS011;17580;50.850;4.504;2024-02-28T11:13:51;15.07;;;8.27;;
10191;SDS011;17580;50.850;4.504;2024-02-28T11:16:17;10.20;;;7.50;;
10191;SDS011;17580;50.850;4.504;2024-02-28T11:18:49;13.23;;;8.20;;
10191;SDS011;17580;50.850;4.504;2024-02-28T11:21:16;15.10;;;8.67;;
10191;SDS011;17580;50.850;4.504;2024-02-28T11:23:45;11.57;;;7.90;;
10191;SDS011;17580;50.850;4.504;2024-02-28T11:26:13;12.93;;;7.97;;
10191;SDS011;17580;50.850;4.504;2024-02-28T11:28:40;13.83;;;8.37;;
10191;SDS011;17580;50.850;4.504;2024-02-28T11:31:08;12.17;;;7.40;;
10191;SDS011;17580;50.850;4.504;2024-02-28T11:33:35;9.60;;;7.77;;
10191;SDS011;17580;50.850;4.504;2024-02-28T11:36:05;12.00;;;7.77;;
10191;SDS011;17580;50.850;4.504;2024-02-28T11:38:34;11.53;;;8.37;;
10191;SDS011;17580;50.850;4.504;2024-02-28T11:41:03;13.17;;;8.33;;
10191;SDS011;17580;50.850;4.504;2024-02-28T11:43:30;13.93;;;8.77;;
10191;SDS011;17580;50.850;4.504;2024-02-28T11:45:58;12.43;;;7.77;;
10191;SDS011;17580;50.850;4.504;2024-02-28T11:48:25;13.27;;;8.03;;
10191;SDS011;17580;50.850;4.504;2024-02-28T11:50:53;9.87;;;7.87;;
10191;SDS011;17580;50.850;4.504;2024-02-28T11:53:21;11.53;;;8.07;;
10191;SDS011;17580;50.850;4.504;2024-02-28T11:55:48;11.77;;;7.73;;
10191;SDS011;17580;50.850;4.504;2024-02-28T11:58:16;14.90;;;8.43;;
10191;SDS011;17580;50.850;4.504;2024-02-28T12:00:47;15.07;;;8.03;;
10191;SDS011;17580;50.850;4.504;2024-02-28T12:03:14;10.67;;;6.50;;
10191;SDS011;17580;50.850;4.504;2024-02-28T12:05:42;8.33;;;6.50;;
10191;SDS011;17580;50.850;4.504;2024-02-28T12:08:09;6.93;;;6.07;;
10191;SDS011;17580;50.850;4.504;2024-02-28T12:10:38;9.87;;;7.80;;
10191;SDS011;17580;50.850;4.504;2024-02-28T12:13:05;11.50;;;7.03;;
10191;SDS011;17580;50.850;4.504;2024-02-28T12:15:34;10.33;;;7.63;;
10191;SDS011;17580;50.850;4.504;2024-02-28T12:18:06;13.07;;;8.07;;
10191;SDS011;17580;50.850;4.504;2024-02-28T12:20:34;14.43;;;7.50;;
10191;SDS011;17580;50.850;4.504;2024-02-28T12:23:02;12.60;;;7.47;;
10191;SDS011;17580;50.850;4.504;2024-02-28T12:25:29;12.20;;;8.07;;
10191;SDS011;17580;50.850;4.504;2024-02-28T12:27:58;10.97;;;7.30;;
10191;SDS011;17580;50.850;4.504;2024-02-28T12:30:26;9.77;;;7.17;;
10191;SDS011;17580;50.850;4.504;2024-02-28T12:32:53;9.37;;;6.50;;
10191;SDS011;17580;50.850;4.504;2024-02-28T12:35:20;9.43;;;6.83;;
10191;SDS011;17580;50.850;4.504;2024-02-28T12:37:47;6.77;;;6.07;;
10191;SDS011;17580;50.850;4.504;2024-02-28T12:40:16;8.50;;;6.77;;
10191;SDS011;17580;50.850;4.504;2024-02-28T12:42:43;7.03;;;6.10;;
10191;SDS011;17580;50.850;4.504;2024-02-28T12:45:12;8.40;;;5.87;;
10191;SDS011;17580;50.850;4.504;2024-02-28T12:47:39;6.23;;;5.63;;
10191;SDS011;17580;50.850;4.504;2024-02-28T12:50:06;5.63;;;5.13;;
10191;SDS011;17580;50.850;4.504;2024-02-28T12:52:34;8.50;;;6.20;;
10191;SDS011;17580;50.850;4.504;2024-02-28T12:55:02;5.73;;;5.23;;
10191;SDS011;17580;50.850;4.504;2024-02-28T12:57:30;6.33;;;4.77;;
10191;SDS011;17580;50.850;4.504;2024-02-28T12:59:57;3.60;;;3.30;;
10191;SDS011;17580;50.850;4.504;2024-02-28T13:02:26;4.73;;;3.20;;
10191;SDS011;17580;50.850;4.504;2024-02-28T13:04:53;7.47;;;3.80;;
10191;SDS011;17580;50.850;4.504;2024-02-28T13:07:20;6.83;;;3.63;;
10191;SDS011;17580;50.850;4.504;2024-02-28T13:09:48;3.63;;;2.60;;
10191;SDS011;17580;50.850;4.504;2024-02-28T13:12:15;3.30;;;2.93;;
10191;SDS011;17580;50.850;4.504;2024-02-28T13:14:44;4.10;;;3.10;;
10191;SDS011;17580;50.850;4.504;2024-02-28T13:17:12;5.83;;;3.47;;
10191;SDS011;17580;50.850;4.504;2024-02-28T13:19:42;9.73;;;3.30;;
10191;SDS011;17580;50.850;4.504;2024-02-28T13:22:09;3.80;;;2.97;;
10191;SDS011;17580;50.850;4.504;2024-02-28T13:24:36;5.30;;;3.27;;
10191;SDS011;17580;50.850;4.504;2024-02-28T13:27:03;6.43;;;4.23;;
10191;SDS011;17580;50.850;4.504;2024-02-28T13:29:31;5.37;;;3.53;;
10191;SDS011;17580;50.850;4.504;2024-02-28T13:31:58;4.20;;;3.00;;
10191;SDS011;17580;50.850;4.504;2024-02-28T13:34:26;5.07;;;3.90;;
10191;SDS011;17580;50.850;4.504;2024-02-28T13:36:55;3.77;;;3.20;;
10191;SDS011;17580;50.850;4.504;2024-02-28T13:39:22;4.77;;;3.57;;
10191;SDS011;17580;50.850;4.504;2024-02-28T13:41:51;4.30;;;3.70;;
10191;SDS011;17580;50.850;4.504;2024-02-28T13:44:18;4.00;;;3.10;;
10191;SDS011;17580;50.850;4.504;2024-02-28T13:46:45;4.73;;;3.23;;
10191;SDS011;17580;50.850;4.504;2024-02-28T13:49:12;4.63;;;3.73;;
10191;SDS011;17580;50.850;4.504;2024-02-28T13:51:40;5.43;;;3.63;;
10191;SDS011;17580;50.850;4.504;2024-02-28T13:54:08;5.07;;;4.00;;
10191;SDS011;17580;50.850;4.504;2024-02-28T13:56:36;4.00;;;3.20;;
10191;SDS011;17580;50.850;4.504;2024-02-28T13:59:03;3.47;;;2.70;;
10191;SDS011;17580;50.850;4.504;2024-02-28T14:01:31;7.00;;;3.30;;
10191;SDS011;17580;50.850;4.504;2024-02-28T14:03:58;3.00;;;2.80;;
10191;SDS011;17580;50.850;4.504;2024-02-28T14:06:26;8.83;;;3.37;;
10191;SDS011;17580;50.850;4.504;2024-02-28T14:08:53;5.67;;;3.33;;
10191;SDS011;17580;50.850;4.504;2024-02-28T14:11:22;3.63;;;3.20;;
10191;SDS011;17580;50.850;4.504;2024-02-28T14:13:49;3.70;;;3.40;;
10191;SDS011;17580;50.850;4.504;2024-02-28T14:16:16;3.30;;;3.10;;
10191;SDS011;17580;50.850;4.504;2024-02-28T14:18:45;2.97;;;2.87;;
10191;SDS011;17580;50.850;4.504;2024-02-28T14:21:12;3.00;;;2.80;;
10191;SDS011;17580;50.850;4.504;2024-02-28T14:23:39;3.30;;;3.00;;
10191;SDS011;17580;50.850;4.504;2024-02-28T14:26:07;3.00;;;2.80;;
10191;SDS011;17580;50.850;4.504;2024-02-28T14:28:36;3.50;;;3.07;;
10191;SDS011;17580;50.850;4.504;2024-02-28T14:31:03;4.00;;;2.80;;
10191;SDS011;17580;50.850;4.504;2024-02-28T14:33:30;5.67;;;2.90;;
10191;SDS011;17580;50.850;4.504;2024-02-28T14:35:58;2.90;;;2.70;;
10191;SDS011;17580;50.850;4.504;2024-02-28T14:38:25;3.40;;;2.97;;
10191;SDS011;17580;50.850;4.504;2024-02-28T14:40:53;3.13;;;2.90;;
10191;SDS011;17580;50.850;4.504;2024-02-28T14:43:20;3.90;;;3.43;;
10191;SDS011;17580;50.850;4.504;2024-02-28T14:45:48;3.00;;;2.80;;
10191;SDS011;17580;50.850;4.504;2024-02-28T14:48:15;3.90;;;3.50;;
10191;SDS011;17580;50.850;4.504;2024-02-28T14:50:43;3.40;;;3.10;;
10191;SDS011;17580;50.850;4.504;2024-02-28T14:53:10;3.47;;;3.13;;
10191;SDS011;17580;50.850;4.504;2024-02-28T14:55:37;3.73;;;3.43;;
10191;SDS011;17580;50.850;4.504;2024-02-28T14:58:05;3.03;;;2.83;;